sensor_id;sensor_type;location;lat;lon;timestamp;P1;durP1;ratioP1;P2;durP2;ratioP2
80313;SDS011;69628;47.516;18.828;2023-07-22T00:00:22;5.82;;;2.60;;
80313;SDS011;69628;47.516;18.828;2023-07-22T00:01:23;2.60;;;2.22;;
80313;SDS011;69628;47.516;18.828;2023-07-22T00:02:23;2.97;;;2.05;;
80313;SDS011;69628;47.516;18.828;2023-07-22T00:03:24;3.03;;;2.10;;
80313;SDS011;69628;47.516;18.828;2023-07-22T00:04:25;9.15;;;2.67;;
80313;SDS011;69628;47.516;18.828;2023-07-22T00:05:25;5.28;;;2.05;;
80313;SDS011;69628;47.516;18.828;2023-07-22T00:06:26;3.55;;;2.30;;
80313;SDS011;69628;47.516;18.828;2023-07-22T00:07:26;3.75;;;2.45;;
80313;SDS011;69628;47.516;18.828;2023-07-22T00:08:27;3.53;;;2.20;;
80313;SDS011;69628;47.516;18.828;2023-07-22T00:09:27;2.60;;;2.03;;
80313;SDS011;69628;47.516;18.828;2023-07-22T00:10:27;3.40;;;2.30;;
80313;SDS011;69628;47.516;18.828;2023-07-22T00:11:28;3.22;;;2.30;;
80313;SDS011;69628;47.516;18.828;2023-07-22T00:12:28;8.00;;;2.22;;
80313;SDS011;69628;47.516;18.828;2023-07-22T00:13:29;2.90;;;2.25;;
80313;SDS011;69628;47.516;18.828;2023-07-22T00:14:30;3.17;;;2.40;;
80313;SDS011;69628;47.516;18.828;2023-07-22T00:15:30;5.93;;;2.05;;
80313;SDS011;69628;47.516;18.828;2023-07-22T00:16:31;3.85;;;2.50;;
80313;SDS011;69628;47.516;18.828;2023-07-22T00:17:32;3.80;;;2.17;;
80313;SDS011;69628;47.516;18.828;2023-07-22T00:18:32;11.20;;;2.60;;
80313;SDS011;69628;47.516;18.828;2023-07-22T00:19:33;3.95;;;2.47;;
80313;SDS011;69628;47.516;18.828;2023-07-22T00:20:34;3.60;;;2.45;;
80313;SDS011;69628;47.516;18.828;2023-07-22T00:21:34;6.45;;;2.35;;
80313;SDS011;69628;47.516;18.828;2023-07-22T00:22:34;3.92;;;2.28;;
80313;SDS011;69628;47.516;18.828;2023-07-22T00:23:35;3.03;;;2.20;;
80313;SDS011;69628;47.516;18.828;2023-07-22T00:24:36;2.53;;;1.90;;
80313;SDS011;69628;47.516;18.828;2023-07-22T00:25:36;4.93;;;2.20;;
80313;SDS011;69628;47.516;18.828;2023-07-22T00:26:37;2.95;;;2.10;;
80313;SDS011;69628;47.516;18.828;2023-07-22T00:27:38;2.33;;;1.75;;
80313;SDS011;69628;47.516;18.828;2023-07-22T00:28:38;15.25;;;2.50;;
80313;SDS011;69628;47.516;18.828;2023-07-22T00:29:39;3.38;;;2.30;;
80313;SDS011;69628;47.516;18.828;2023-07-22T00:30:39;3.88;;;2.28;;
80313;SDS011;69628;47.516;18.828;2023-07-22T00:31:40;5.32;;;2.33;;
80313;SDS011;69628;47.516;18.828;2023-07-22T00:32:41;5.90;;;2.63;;
80313;SDS011;69628;47.516;18.828;2023-07-22T00:33:41;2.95;;;2.20;;
80313;SDS011;69628;47.516;18.828;2023-07-22T00:34:42;4.18;;;2.13;;
80313;SDS011;69628;47.516;18.828;2023-07-22T00:35:42;3.53;;;2.22;;
80313;SDS011;69628;47.516;18.828;2023-07-22T00:36:43;4.72;;;2.10;;
80313;SDS011;69628;47.516;18.828;2023-07-22T00:37:44;5.65;;;2.33;;
80313;SDS011;69628;47.516;18.828;2023-07-22T00:38:44;3.83;;;2.45;;
80313;SDS011;69628;47.516;18.828;2023-07-22T00:39:45;3.53;;;2.33;;
80313;SDS011;69628;47.516;18.828;2023-07-22T00:40:45;5.05;;;2.22;;
80313;SDS011;69628;47.516;18.828;2023-07-22T00:41:45;2.92;;;2.10;;
80313;SDS011;69628;47.516;18.828;2023-07-22T00:42:46;7.38;;;2.28;;
80313;SDS011;69628;47.516;18.828;2023-07-22T00:43:47;3.45;;;2.22;;
80313;SDS011;69628;47.516;18.828;2023-07-22T00:44:47;5.57;;;2.28;;
80313;SDS011;69628;47.516;18.828;2023-07-22T00:45:47;2.90;;;2.08;;
80313;SDS011;69628;47.516;18.828;2023-07-22T00:46:48;2.53;;;1.67;;
80313;SDS011;69628;47.516;18.828;2023-07-22T00:47:49;3.33;;;2.00;;
80313;SDS011;69628;47.516;18.828;2023-07-22T00:48:49;3.03;;;1.92;;
80313;SDS011;69628;47.516;18.828;2023-07-22T00:49:50;8.45;;;2.22;;
80313;SDS011;69628;47.516;18.828;2023-07-22T00:50:51;3.35;;;2.15;;
80313;SDS011;69628;47.516;18.828;2023-07-22T00:51:51;3.28;;;2.08;;
80313;SDS011;69628;47.516;18.828;2023-07-22T00:52:52;3.67;;;1.85;;
80313;SDS011;69628;47.516;18.828;2023-07-22T00:53:52;4.53;;;2.20;;
80313;SDS011;69628;47.516;18.828;2023-07-22T00:54:53;4.15;;;2.67;;
80313;SDS011;69628;47.516;18.828;2023-07-22T00:55:54;2.53;;;1.90;;
80313;SDS011;69628;47.516;18.828;2023-07-22T00:56:54;3.40;;;2.33;;
80313;SDS011;69628;47.516;18.828;2023-07-22T00:57:56;6.35;;;2.20;;
80313;SDS011;69628;47.516;18.828;2023-07-22T00:58:57;3.38;;;2.20;;
80313;SDS011;69628;47.516;18.828;2023-07-22T00:59:57;3.35;;;2.25;;
80313;SDS011;69628;47.516;18.828;2023-07-22T01:00:57;3.17;;;2.10;;
80313;SDS011;69628;47.516;18.828;2023-07-22T01:01:58;4.75;;;2.15;;
80313;SDS011;69628;47.516;18.828;2023-07-22T01:02:58;3.53;;;1.95;;
80313;SDS011;69628;47.516;18.828;2023-07-22T01:03:59;8.38;;;2.25;;
80313;SDS011;69628;47.516;18.828;2023-07-22T01:05:01;9.30;;;2.22;;
80313;SDS011;69628;47.516;18.828;2023-07-22T01:06:01;4.15;;;2.22;;
80313;SDS011;69628;47.516;18.828;2023-07-22T01:07:03;4.18;;;2.33;;
80313;SDS011;69628;47.516;18.828;2023-07-22T01:08:08;5.40;;;2.47;;
80313;SDS011;69628;47.516;18.828;2023-07-22T01:09:08;3.05;;;1.90;;
80313;SDS011;69628;47.516;18.828;2023-07-22T01:10:09;2.78;;;2.05;;
80313;SDS011;69628;47.516;18.828;2023-07-22T01:11:09;3.20;;;2.00;;
80313;SDS011;69628;47.516;18.828;2023-07-22T01:12:10;5.60;;;2.10;;
80313;SDS011;69628;47.516;18.828;2023-07-22T01:13:11;3.42;;;2.20;;
80313;SDS011;69628;47.516;18.828;2023-07-22T01:14:11;6.68;;;2.45;;
80313;SDS011;69628;47.516;18.828;2023-07-22T01:15:11;3.10;;;2.20;;
80313;SDS011;69628;47.516;18.828;2023-07-22T01:16:12;2.50;;;1.75;;
80313;SDS011;69628;47.516;18.828;2023-07-22T01:17:12;3.15;;;2.30;;
80313;SDS011;69628;47.516;18.828;2023-07-22T01:18:13;8.23;;;2.40;;
80313;SDS011;69628;47.516;18.828;2023-07-22T01:19:13;6.32;;;2.50;;
80313;SDS011;69628;47.516;18.828;2023-07-22T01:20:15;4.10;;;2.10;;
80313;SDS011;69628;47.516;18.828;2023-07-22T01:21:15;3.72;;;2.20;;
80313;SDS011;69628;47.516;18.828;2023-07-22T01:22:16;3.17;;;2.30;;
80313;SDS011;69628;47.516;18.828;2023-07-22T01:23:16;5.80;;;2.10;;
80313;SDS011;69628;47.516;18.828;2023-07-22T01:24:17;8.35;;;2.47;;
80313;SDS011;69628;47.516;18.828;2023-07-22T01:25:19;4.82;;;2.05;;
80313;SDS011;69628;47.516;18.828;2023-07-22T01:26:22;6.85;;;2.22;;
80313;SDS011;69628;47.516;18.828;2023-07-22T01:27:23;8.82;;;2.35;;
80313;SDS011;69628;47.516;18.828;2023-07-22T01:28:23;4.90;;;2.10;;
80313;SDS011;69628;47.516;18.828;2023-07-22T01:29:24;2.50;;;1.80;;
80313;SDS011;69628;47.516;18.828;2023-07-22T01:30:25;3.78;;;2.30;;
80313;SDS011;69628;47.516;18.828;2023-07-22T01:31:27;8.75;;;2.58;;
80313;SDS011;69628;47.516;18.828;2023-07-22T01:32:27;3.58;;;2.20;;
80313;SDS011;69628;47.516;18.828;2023-07-22T01:33:28;3.10;;;2.22;;
80313;SDS011;69628;47.516;18.828;2023-07-22T01:34:28;6.03;;;2.30;;
80313;SDS011;69628;47.516;18.828;2023-07-22T01:35:29;3.35;;;2.00;;
80313;SDS011;69628;47.516;18.828;2023-07-22T01:36:30;7.53;;;2.33;;
80313;SDS011;69628;47.516;18.828;2023-07-22T01:37:30;4.63;;;2.50;;
80313;SDS011;69628;47.516;18.828;2023-07-22T01:38:31;3.35;;;2.33;;
80313;SDS011;69628;47.516;18.828;2023-07-22T01:39:32;3.78;;;2.30;;
80313;SDS011;69628;47.516;18.828;2023-07-22T01:40:32;2.80;;;2.00;;
80313;SDS011;69628;47.516;18.828;2023-07-22T01:41:32;4.60;;;2.40;;
80313;SDS011;69628;47.516;18.828;2023-07-22T01:42:33;3.00;;;2.17;;
80313;SDS011;69628;47.516;18.828;2023-07-22T01:43:33;4.25;;;2.33;;
80313;SDS011;69628;47.516;18.828;2023-07-22T01:44:34;3.08;;;2.05;;
80313;SDS011;69628;47.516;18.828;2023-07-22T01:45:34;6.97;;;2.20;;
80313;SDS011;69628;47.516;18.828;2023-07-22T01:46:34;3.67;;;2.22;;
80313;SDS011;69628;47.516;18.828;2023-07-22T01:47:36;5.97;;;1.95;;
80313;SDS011;69628;47.516;18.828;2023-07-22T01:48:37;2.30;;;1.80;;
80313;SDS011;69628;47.516;18.828;2023-07-22T01:49:37;3.33;;;2.22;;
80313;SDS011;69628;47.516;18.828;2023-07-22T01:50:38;2.63;;;2.05;;
80313;SDS011;69628;47.516;18.828;2023-07-22T01:51:38;6.15;;;2.42;;
80313;SDS011;69628;47.516;18.828;2023-07-22T01:52:40;4.97;;;2.25;;
80313;SDS011;69628;47.516;18.828;2023-07-22T01:53:40;9.88;;;2.40;;
80313;SDS011;69628;47.516;18.828;2023-07-22T01:54:41;3.05;;;2.10;;
80313;SDS011;69628;47.516;18.828;2023-07-22T01:55:41;6.35;;;2.45;;
80313;SDS011;69628;47.516;18.828;2023-07-22T01:56:41;4.28;;;2.35;;
80313;SDS011;69628;47.516;18.828;2023-07-22T01:57:42;3.80;;;2.22;;
80313;SDS011;69628;47.516;18.828;2023-07-22T01:58:43;5.20;;;2.45;;
80313;SDS011;69628;47.516;18.828;2023-07-22T01:59:43;4.43;;;2.17;;
80313;SDS011;69628;47.516;18.828;2023-07-22T02:00:43;5.30;;;2.03;;
80313;SDS011;69628;47.516;18.828;2023-07-22T02:01:44;3.38;;;2.22;;
80313;SDS011;69628;47.516;18.828;2023-07-22T02:02:44;3.30;;;2.25;;
80313;SDS011;69628;47.516;18.828;2023-07-22T02:03:44;4.38;;;2.20;;
80313;SDS011;69628;47.516;18.828;2023-07-22T02:04:46;6.10;;;2.65;;
80313;SDS011;69628;47.516;18.828;2023-07-22T02:05:46;3.15;;;2.08;;
80313;SDS011;69628;47.516;18.828;2023-07-22T02:06:47;4.57;;;2.30;;
80313;SDS011;69628;47.516;18.828;2023-07-22T02:07:48;3.22;;;2.30;;
80313;SDS011;69628;47.516;18.828;2023-07-22T02:08:48;3.45;;;2.25;;
80313;SDS011;69628;47.516;18.828;2023-07-22T02:09:49;6.20;;;2.20;;
80313;SDS011;69628;47.516;18.828;2023-07-22T02:10:51;3.63;;;2.28;;
80313;SDS011;69628;47.516;18.828;2023-07-22T02:11:52;4.18;;;2.30;;
80313;SDS011;69628;47.516;18.828;2023-07-22T02:12:53;4.47;;;2.50;;
80313;SDS011;69628;47.516;18.828;2023-07-22T02:13:54;4.30;;;2.25;;
80313;SDS011;69628;47.516;18.828;2023-07-22T02:14:54;3.80;;;2.30;;
80313;SDS011;69628;47.516;18.828;2023-07-22T02:15:55;3.10;;;2.20;;
80313;SDS011;69628;47.516;18.828;2023-07-22T02:16:55;7.97;;;2.50;;
80313;SDS011;69628;47.516;18.828;2023-07-22T02:17:55;6.88;;;1.90;;
80313;SDS011;69628;47.516;18.828;2023-07-22T02:18:56;3.53;;;2.20;;
80313;SDS011;69628;47.516;18.828;2023-07-22T02:19:57;4.88;;;2.42;;
80313;SDS011;69628;47.516;18.828;2023-07-22T02:20:57;4.78;;;2.10;;
80313;SDS011;69628;47.516;18.828;2023-07-22T02:21:58;4.35;;;2.20;;
80313;SDS011;69628;47.516;18.828;2023-07-22T02:22:58;2.92;;;1.98;;
80313;SDS011;69628;47.516;18.828;2023-07-22T02:23:58;3.40;;;2.10;;
80313;SDS011;69628;47.516;18.828;2023-07-22T02:24:59;6.97;;;2.33;;
80313;SDS011;69628;47.516;18.828;2023-07-22T02:25:59;3.97;;;2.45;;
80313;SDS011;69628;47.516;18.828;2023-07-22T02:27:01;4.60;;;2.30;;
80313;SDS011;69628;47.516;18.828;2023-07-22T02:28:01;4.22;;;2.30;;
80313;SDS011;69628;47.516;18.828;2023-07-22T02:29:02;3.17;;;2.00;;
80313;SDS011;69628;47.516;18.828;2023-07-22T02:30:03;3.08;;;2.15;;
80313;SDS011;69628;47.516;18.828;2023-07-22T02:31:04;5.70;;;2.45;;
80313;SDS011;69628;47.516;18.828;2023-07-22T02:32:06;3.25;;;2.28;;
80313;SDS011;69628;47.516;18.828;2023-07-22T02:33:08;6.32;;;2.40;;
80313;SDS011;69628;47.516;18.828;2023-07-22T02:34:08;4.38;;;2.25;;
80313;SDS011;69628;47.516;18.828;2023-07-22T02:35:09;4.72;;;2.55;;
80313;SDS011;69628;47.516;18.828;2023-07-22T02:36:10;7.00;;;2.13;;
80313;SDS011;69628;47.516;18.828;2023-07-22T02:37:10;5.07;;;2.05;;
80313;SDS011;69628;47.516;18.828;2023-07-22T02:38:11;4.88;;;2.40;;
80313;SDS011;69628;47.516;18.828;2023-07-22T02:39:11;2.58;;;2.00;;
80313;SDS011;69628;47.516;18.828;2023-07-22T02:40:11;4.13;;;2.30;;
80313;SDS011;69628;47.516;18.828;2023-07-22T02:41:12;5.40;;;2.00;;
80313;SDS011;69628;47.516;18.828;2023-07-22T02:42:12;4.35;;;2.40;;
80313;SDS011;69628;47.516;18.828;2023-07-22T02:43:13;6.70;;;2.22;;
80313;SDS011;69628;47.516;18.828;2023-07-22T02:44:14;6.80;;;2.08;;
80313;SDS011;69628;47.516;18.828;2023-07-22T02:45:14;4.53;;;2.53;;
80313;SDS011;69628;47.516;18.828;2023-07-22T02:46:14;4.13;;;2.13;;
80313;SDS011;69628;47.516;18.828;2023-07-22T02:47:15;4.13;;;2.60;;
80313;SDS011;69628;47.516;18.828;2023-07-22T02:48:15;2.97;;;2.10;;
80313;SDS011;69628;47.516;18.828;2023-07-22T02:49:16;3.28;;;2.30;;
80313;SDS011;69628;47.516;18.828;2023-07-22T02:50:16;4.00;;;2.45;;
80313;SDS011;69628;47.516;18.828;2023-07-22T02:51:16;3.30;;;2.05;;
80313;SDS011;69628;47.516;18.828;2023-07-22T02:52:17;4.18;;;2.17;;
80313;SDS011;69628;47.516;18.828;2023-07-22T02:53:17;3.75;;;2.10;;
80313;SDS011;69628;47.516;18.828;2023-07-22T02:54:19;3.65;;;2.30;;
80313;SDS011;69628;47.516;18.828;2023-07-22T02:55:20;4.57;;;2.17;;
80313;SDS011;69628;47.516;18.828;2023-07-22T02:56:20;6.53;;;2.70;;
80313;SDS011;69628;47.516;18.828;2023-07-22T02:57:21;8.20;;;2.45;;
80313;SDS011;69628;47.516;18.828;2023-07-22T02:58:21;6.85;;;2.40;;
80313;SDS011;69628;47.516;18.828;2023-07-22T02:59:22;6.43;;;2.40;;
80313;SDS011;69628;47.516;18.828;2023-07-22T03:00:22;6.35;;;2.00;;
80313;SDS011;69628;47.516;18.828;2023-07-22T03:01:25;5.03;;;2.72;;
80313;SDS011;69628;47.516;18.828;2023-07-22T03:02:26;3.40;;;2.50;;
80313;SDS011;69628;47.516;18.828;2023-07-22T03:03:26;4.35;;;2.63;;
80313;SDS011;69628;47.516;18.828;2023-07-22T03:04:27;4.07;;;2.63;;
80313;SDS011;69628;47.516;18.828;2023-07-22T03:05:28;5.28;;;2.90;;
80313;SDS011;69628;47.516;18.828;2023-07-22T03:06:29;4.32;;;2.40;;
80313;SDS011;69628;47.516;18.828;2023-07-22T03:07:31;3.22;;;2.40;;
80313;SDS011;69628;47.516;18.828;2023-07-22T03:08:31;4.28;;;2.67;;
80313;SDS011;69628;47.516;18.828;2023-07-22T03:09:32;4.13;;;2.70;;
80313;SDS011;69628;47.516;18.828;2023-07-22T03:10:32;4.38;;;2.70;;
80313;SDS011;69628;47.516;18.828;2023-07-22T03:11:32;4.32;;;2.90;;
80313;SDS011;69628;47.516;18.828;2023-07-22T03:12:34;8.68;;;3.03;;
80313;SDS011;69628;47.516;18.828;2023-07-22T03:13:35;8.88;;;3.00;;
80313;SDS011;69628;47.516;18.828;2023-07-22T03:14:36;5.07;;;2.80;;
80313;SDS011;69628;47.516;18.828;2023-07-22T03:15:37;5.28;;;2.85;;
80313;SDS011;69628;47.516;18.828;2023-07-22T03:16:37;4.65;;;2.80;;
80313;SDS011;69628;47.516;18.828;2023-07-22T03:17:38;5.65;;;3.35;;
80313;SDS011;69628;47.516;18.828;2023-07-22T03:18:39;5.10;;;3.28;;
80313;SDS011;69628;47.516;18.828;2023-07-22T03:19:39;6.70;;;3.03;;
80313;SDS011;69628;47.516;18.828;2023-07-22T03:20:40;5.00;;;2.60;;
80313;SDS011;69628;47.516;18.828;2023-07-22T03:21:41;4.82;;;3.05;;
80313;SDS011;69628;47.516;18.828;2023-07-22T03:22:41;6.25;;;3.17;;
80313;SDS011;69628;47.516;18.828;2023-07-22T03:23:42;6.10;;;3.05;;
80313;SDS011;69628;47.516;18.828;2023-07-22T03:24:45;5.00;;;3.00;;
80313;SDS011;69628;47.516;18.828;2023-07-22T03:25:47;6.47;;;3.17;;
80313;SDS011;69628;47.516;18.828;2023-07-22T03:26:47;7.15;;;2.78;;
80313;SDS011;69628;47.516;18.828;2023-07-22T03:27:48;6.00;;;3.40;;
80313;SDS011;69628;47.516;18.828;2023-07-22T03:28:49;6.95;;;3.20;;
80313;SDS011;69628;47.516;18.828;2023-07-22T03:29:49;6.05;;;2.97;;
80313;SDS011;69628;47.516;18.828;2023-07-22T03:30:50;7.57;;;3.28;;
80313;SDS011;69628;47.516;18.828;2023-07-22T03:31:50;9.07;;;3.22;;
80313;SDS011;69628;47.516;18.828;2023-07-22T03:32:51;8.15;;;3.47;;
80313;SDS011;69628;47.516;18.828;2023-07-22T03:33:51;6.30;;;2.88;;
80313;SDS011;69628;47.516;18.828;2023-07-22T03:34:52;5.68;;;2.95;;
80313;SDS011;69628;47.516;18.828;2023-07-22T03:35:52;9.05;;;2.90;;
80313;SDS011;69628;47.516;18.828;2023-07-22T03:36:53;6.40;;;2.70;;
80313;SDS011;69628;47.516;18.828;2023-07-22T03:37:53;7.13;;;3.17;;
80313;SDS011;69628;47.516;18.828;2023-07-22T03:38:54;4.28;;;2.85;;
80313;SDS011;69628;47.516;18.828;2023-07-22T03:39:55;4.55;;;3.35;;
80313;SDS011;69628;47.516;18.828;2023-07-22T03:40:55;5.57;;;3.03;;
80313;SDS011;69628;47.516;18.828;2023-07-22T03:41:56;4.95;;;2.90;;
80313;SDS011;69628;47.516;18.828;2023-07-22T03:42:56;5.93;;;3.00;;
80313;SDS011;69628;47.516;18.828;2023-07-22T03:43:57;7.35;;;2.72;;
80313;SDS011;69628;47.516;18.828;2023-07-22T03:44:58;7.80;;;3.20;;
80313;SDS011;69628;47.516;18.828;2023-07-22T03:45:58;6.75;;;3.13;;
80313;SDS011;69628;47.516;18.828;2023-07-22T03:46:59;4.18;;;2.70;;
80313;SDS011;69628;47.516;18.828;2023-07-22T03:48:00;3.75;;;2.40;;
80313;SDS011;69628;47.516;18.828;2023-07-22T03:49:00;4.65;;;2.83;;
80313;SDS011;69628;47.516;18.828;2023-07-22T03:50:01;9.27;;;3.10;;
80313;SDS011;69628;47.516;18.828;2023-07-22T03:51:02;5.60;;;3.08;;
80313;SDS011;69628;47.516;18.828;2023-07-22T03:52:02;3.22;;;2.63;;
80313;SDS011;69628;47.516;18.828;2023-07-22T03:53:03;6.28;;;3.05;;
80313;SDS011;69628;47.516;18.828;2023-07-22T03:54:03;5.25;;;3.00;;
80313;SDS011;69628;47.516;18.828;2023-07-22T03:55:04;9.00;;;2.95;;
80313;SDS011;69628;47.516;18.828;2023-07-22T03:56:05;5.82;;;3.03;;
80313;SDS011;69628;47.516;18.828;2023-07-22T03:57:05;5.88;;;2.85;;
80313;SDS011;69628;47.516;18.828;2023-07-22T03:58:06;6.82;;;3.28;;
80313;SDS011;69628;47.516;18.828;2023-07-22T03:59:06;4.85;;;2.78;;
80313;SDS011;69628;47.516;18.828;2023-07-22T04:00:07;6.28;;;2.60;;
80313;SDS011;69628;47.516;18.828;2023-07-22T04:01:11;4.57;;;2.80;;
80313;SDS011;69628;47.516;18.828;2023-07-22T04:02:11;5.38;;;3.10;;
80313;SDS011;69628;47.516;18.828;2023-07-22T04:03:12;5.10;;;3.55;;
80313;SDS011;69628;47.516;18.828;2023-07-22T04:04:12;5.07;;;3.25;;
80313;SDS011;69628;47.516;18.828;2023-07-22T04:05:12;6.75;;;3.47;;
80313;SDS011;69628;47.516;18.828;2023-07-22T04:06:13;3.72;;;2.90;;
80313;SDS011;69628;47.516;18.828;2023-07-22T04:07:13;6.60;;;3.20;;
80313;SDS011;69628;47.516;18.828;2023-07-22T04:08:14;6.70;;;3.10;;
80313;SDS011;69628;47.516;18.828;2023-07-22T04:09:14;4.75;;;3.28;;
80313;SDS011;69628;47.516;18.828;2023-07-22T04:10:14;9.35;;;3.28;;
80313;SDS011;69628;47.516;18.828;2023-07-22T04:11:15;4.85;;;2.92;;
80313;SDS011;69628;47.516;18.828;2023-07-22T04:12:15;3.97;;;2.95;;
80313;SDS011;69628;47.516;18.828;2023-07-22T04:13:15;6.68;;;3.00;;
80313;SDS011;69628;47.516;18.828;2023-07-22T04:14:16;10.75;;;3.30;;
80313;SDS011;69628;47.516;18.828;2023-07-22T04:15:16;10.13;;;3.55;;
80313;SDS011;69628;47.516;18.828;2023-07-22T04:16:17;5.25;;;3.13;;
80313;SDS011;69628;47.516;18.828;2023-07-22T04:17:17;4.30;;;2.85;;
80313;SDS011;69628;47.516;18.828;2023-07-22T04:18:18;9.00;;;3.17;;
80313;SDS011;69628;47.516;18.828;2023-07-22T04:19:19;9.52;;;3.40;;
80313;SDS011;69628;47.516;18.828;2023-07-22T04:20:19;7.20;;;3.28;;
80313;SDS011;69628;47.516;18.828;2023-07-22T04:21:20;4.75;;;3.17;;
80313;SDS011;69628;47.516;18.828;2023-07-22T04:22:20;3.35;;;2.63;;
80313;SDS011;69628;47.516;18.828;2023-07-22T04:23:21;5.78;;;3.20;;
80313;SDS011;69628;47.516;18.828;2023-07-22T04:24:21;8.90;;;3.42;;
80313;SDS011;69628;47.516;18.828;2023-07-22T04:25:22;12.43;;;3.65;;
80313;SDS011;69628;47.516;18.828;2023-07-22T04:26:22;4.70;;;3.47;;
80313;SDS011;69628;47.516;18.828;2023-07-22T04:27:23;4.00;;;2.80;;
80313;SDS011;69628;47.516;18.828;2023-07-22T04:28:23;5.50;;;3.63;;
80313;SDS011;69628;47.516;18.828;2023-07-22T04:29:24;5.95;;;3.40;;
80313;SDS011;69628;47.516;18.828;2023-07-22T04:30:24;3.72;;;2.47;;
80313;SDS011;69628;47.516;18.828;2023-07-22T04:31:24;5.78;;;3.60;;
80313;SDS011;69628;47.516;18.828;2023-07-22T04:32:25;4.93;;;2.88;;
80313;SDS011;69628;47.516;18.828;2023-07-22T04:33:25;4.95;;;3.03;;
80313;SDS011;69628;47.516;18.828;2023-07-22T04:34:29;8.60;;;3.20;;
80313;SDS011;69628;47.516;18.828;2023-07-22T04:35:31;7.35;;;3.47;;
80313;SDS011;69628;47.516;18.828;2023-07-22T04:36:33;7.68;;;3.47;;
80313;SDS011;69628;47.516;18.828;2023-07-22T04:37:33;4.18;;;2.90;;
80313;SDS011;69628;47.516;18.828;2023-07-22T04:38:34;6.93;;;3.30;;
80313;SDS011;69628;47.516;18.828;2023-07-22T04:39:34;7.28;;;3.72;;
80313;SDS011;69628;47.516;18.828;2023-07-22T04:40:35;8.25;;;3.55;;
80313;SDS011;69628;47.516;18.828;2023-07-22T04:41:35;6.82;;;3.53;;
80313;SDS011;69628;47.516;18.828;2023-07-22T04:42:36;5.63;;;3.45;;
80313;SDS011;69628;47.516;18.828;2023-07-22T04:43:36;10.38;;;3.70;;
80313;SDS011;69628;47.516;18.828;2023-07-22T04:44:36;6.65;;;3.55;;
80313;SDS011;69628;47.516;18.828;2023-07-22T04:45:37;6.45;;;3.38;;
80313;SDS011;69628;47.516;18.828;2023-07-22T04:46:40;5.95;;;3.88;;
80313;SDS011;69628;47.516;18.828;2023-07-22T04:47:40;6.03;;;3.33;;
80313;SDS011;69628;47.516;18.828;2023-07-22T04:48:42;4.80;;;3.17;;
80313;SDS011;69628;47.516;18.828;2023-07-22T04:49:42;8.68;;;3.10;;
80313;SDS011;69628;47.516;18.828;2023-07-22T04:50:42;4.70;;;3.30;;
80313;SDS011;69628;47.516;18.828;2023-07-22T04:51:45;7.15;;;3.83;;
80313;SDS011;69628;47.516;18.828;2023-07-22T04:52:46;8.23;;;3.75;;
80313;SDS011;69628;47.516;18.828;2023-07-22T04:53:47;7.15;;;3.47;;
80313;SDS011;69628;47.516;18.828;2023-07-22T04:54:47;5.30;;;3.15;;
80313;SDS011;69628;47.516;18.828;2023-07-22T04:55:48;6.55;;;3.53;;
80313;SDS011;69628;47.516;18.828;2023-07-22T04:56:48;5.00;;;3.30;;
80313;SDS011;69628;47.516;18.828;2023-07-22T04:57:48;4.85;;;3.17;;
80313;SDS011;69628;47.516;18.828;2023-07-22T04:58:51;5.88;;;3.45;;
80313;SDS011;69628;47.516;18.828;2023-07-22T04:59:51;5.35;;;3.30;;
80313;SDS011;69628;47.516;18.828;2023-07-22T05:00:52;6.82;;;3.88;;
80313;SDS011;69628;47.516;18.828;2023-07-22T05:01:52;6.65;;;3.42;;
80313;SDS011;69628;47.516;18.828;2023-07-22T05:02:53;6.32;;;3.65;;
80313;SDS011;69628;47.516;18.828;2023-07-22T05:03:55;7.63;;;3.75;;
80313;SDS011;69628;47.516;18.828;2023-07-22T05:04:57;8.48;;;3.55;;
80313;SDS011;69628;47.516;18.828;2023-07-22T05:05:58;6.57;;;3.80;;
80313;SDS011;69628;47.516;18.828;2023-07-22T05:06:58;4.80;;;3.28;;
80313;SDS011;69628;47.516;18.828;2023-07-22T05:07:59;5.65;;;3.40;;
80313;SDS011;69628;47.516;18.828;2023-07-22T05:08:59;6.50;;;3.10;;
80313;SDS011;69628;47.516;18.828;2023-07-22T05:09:59;5.20;;;3.25;;
80313;SDS011;69628;47.516;18.828;2023-07-22T05:11:00;5.68;;;3.28;;
80313;SDS011;69628;47.516;18.828;2023-07-22T05:12:00;5.53;;;3.35;;
80313;SDS011;69628;47.516;18.828;2023-07-22T05:13:01;6.55;;;3.58;;
80313;SDS011;69628;47.516;18.828;2023-07-22T05:14:01;8.63;;;3.80;;
80313;SDS011;69628;47.516;18.828;2023-07-22T05:15:01;5.97;;;3.17;;
80313;SDS011;69628;47.516;18.828;2023-07-22T05:16:02;7.25;;;3.47;;
80313;SDS011;69628;47.516;18.828;2023-07-22T05:17:03;8.20;;;3.90;;
80313;SDS011;69628;47.516;18.828;2023-07-22T05:18:03;8.30;;;3.30;;
80313;SDS011;69628;47.516;18.828;2023-07-22T05:19:04;5.25;;;3.40;;
80313;SDS011;69628;47.516;18.828;2023-07-22T05:20:05;4.85;;;3.33;;
80313;SDS011;69628;47.516;18.828;2023-07-22T05:21:09;4.28;;;3.17;;
80313;SDS011;69628;47.516;18.828;2023-07-22T05:22:09;5.75;;;3.33;;
80313;SDS011;69628;47.516;18.828;2023-07-22T05:23:10;5.78;;;3.47;;
80313;SDS011;69628;47.516;18.828;2023-07-22T05:24:11;7.88;;;4.00;;
80313;SDS011;69628;47.516;18.828;2023-07-22T05:25:12;6.93;;;4.05;;
80313;SDS011;69628;47.516;18.828;2023-07-22T05:26:12;7.63;;;3.90;;
80313;SDS011;69628;47.516;18.828;2023-07-22T05:27:13;7.40;;;4.43;;
80313;SDS011;69628;47.516;18.828;2023-07-22T05:28:13;9.75;;;3.47;;
80313;SDS011;69628;47.516;18.828;2023-07-22T05:29:14;8.20;;;3.78;;
80313;SDS011;69628;47.516;18.828;2023-07-22T05:30:14;9.02;;;3.45;;
80313;SDS011;69628;47.516;18.828;2023-07-22T05:31:15;4.93;;;3.30;;
80313;SDS011;69628;47.516;18.828;2023-07-22T05:32:16;6.13;;;3.53;;
80313;SDS011;69628;47.516;18.828;2023-07-22T05:33:16;14.65;;;4.00;;
80313;SDS011;69628;47.516;18.828;2023-07-22T05:34:17;4.75;;;3.33;;
80313;SDS011;69628;47.516;18.828;2023-07-22T05:35:17;7.22;;;3.95;;
80313;SDS011;69628;47.516;18.828;2023-07-22T05:36:18;7.90;;;3.60;;
80313;SDS011;69628;47.516;18.828;2023-07-22T05:37:18;4.70;;;3.45;;
80313;SDS011;69628;47.516;18.828;2023-07-22T05:38:18;10.10;;;3.33;;
80313;SDS011;69628;47.516;18.828;2023-07-22T05:39:19;6.15;;;3.58;;
80313;SDS011;69628;47.516;18.828;2023-07-22T05:40:19;5.00;;;3.38;;
80313;SDS011;69628;47.516;18.828;2023-07-22T05:41:19;5.70;;;3.35;;
80313;SDS011;69628;47.516;18.828;2023-07-22T05:42:20;5.88;;;3.65;;
80313;SDS011;69628;47.516;18.828;2023-07-22T05:43:21;7.22;;;4.13;;
80313;SDS011;69628;47.516;18.828;2023-07-22T05:44:21;11.63;;;4.07;;
80313;SDS011;69628;47.516;18.828;2023-07-22T05:45:22;6.65;;;3.42;;
80313;SDS011;69628;47.516;18.828;2023-07-22T05:46:22;5.85;;;3.65;;
80313;SDS011;69628;47.516;18.828;2023-07-22T05:47:23;4.70;;;3.05;;
80313;SDS011;69628;47.516;18.828;2023-07-22T05:48:23;4.97;;;3.22;;
80313;SDS011;69628;47.516;18.828;2023-07-22T05:49:24;8.57;;;3.15;;
80313;SDS011;69628;47.516;18.828;2023-07-22T05:50:24;5.82;;;3.10;;
80313;SDS011;69628;47.516;18.828;2023-07-22T05:51:25;6.50;;;3.03;;
80313;SDS011;69628;47.516;18.828;2023-07-22T05:52:26;4.95;;;3.25;;
80313;SDS011;69628;47.516;18.828;2023-07-22T05:53:27;7.43;;;3.83;;
80313;SDS011;69628;47.516;18.828;2023-07-22T05:54:28;5.70;;;3.80;;
80313;SDS011;69628;47.516;18.828;2023-07-22T05:55:28;5.40;;;2.95;;
80313;SDS011;69628;47.516;18.828;2023-07-22T05:56:28;7.43;;;3.15;;
80313;SDS011;69628;47.516;18.828;2023-07-22T05:57:29;4.90;;;3.08;;
80313;SDS011;69628;47.516;18.828;2023-07-22T05:58:29;6.50;;;3.40;;
80313;SDS011;69628;47.516;18.828;2023-07-22T05:59:30;10.27;;;3.05;;